Time;durP1;ratioP1;P1;durP2;ratioP2;P2;SDS_P1;SDS_P2;PMS_P1;PMS_P2;Temp;Humidity;BMP_temperature;BMP_pressure;BME280_temperature;BME280_humidity;BME280_pressure;Samples;Min_cycle;Max_cycle;Signal;HPM_P1;HPM_P2
2022/07/13 00:00:16;;;;;;;1999.90;999.90;;;24.00;85.10;;;;;;5034987;28;20111;-75
2022/07/13 00:02:41;;;;;;;1999.90;999.90;;;23.90;85.30;;;;;;5060387;28;20017;-75
2022/07/13 00:05:08;;;;;;;1999.90;999.90;;;23.90;85.70;;;;;;5053100;28;20032;-74
2022/07/13 00:07:34;;;;;;;1999.90;999.90;;;23.90;86.10;;;;;;5053242;28;20075;-74
2022/07/13 00:10:00;;;;;;;1999.90;999.90;;;23.90;86.00;;;;;;5050845;28;20033;-74
2022/07/13 00:12:26;;;;;;;1999.90;999.90;;;23.80;85.80;;;;;;5045137;28;20399;-74
2022/07/13 00:14:52;;;;;;;1999.90;999.90;;;23.90;85.70;;;;;;5053030;28;20086;-75
2022/07/13 00:17:18;;;;;;;1999.90;999.90;;;23.80;86.00;;;;;;5052657;28;20033;-74
2022/07/13 00:19:44;;;;;;;1999.90;999.90;;;23.80;85.80;;;;;;5052735;28;20025;-74
2022/07/13 00:22:10;;;;;;;1999.90;999.90;;;23.80;85.50;;;;;;5052873;28;20046;-74
2022/07/13 00:24:36;;;;;;;1999.90;999.90;;;23.70;86.00;;;;;;5052124;28;20104;-75
2022/07/13 00:27:02;;;;;;;1999.90;999.90;;;23.70;86.20;;;;;;5051928;28;20029;-74
2022/07/13 00:29:28;;;;;;;1999.90;999.90;;;23.60;86.40;;;;;;5052517;28;20025;-74
2022/07/13 00:31:54;;;;;;;1999.90;999.90;;;23.60;85.60;;;;;;5052604;28;20120;-74
2022/07/13 00:34:20;;;;;;;1999.90;999.90;;;23.60;85.20;;;;;;5052254;28;20147;-74
2022/07/13 00:36:45;;;;;;;1999.90;999.90;;;23.60;85.30;;;;;;5053136;28;20024;-74
2022/07/13 00:39:11;;;;;;;1999.90;999.90;;;23.60;84.80;;;;;;5052346;28;20086;-74
2022/07/13 00:41:45;;;;;;;1999.90;999.90;;;23.50;85.00;;;;;;5052660;28;20029;-75
2022/07/13 00:44:12;;;;;;;1999.90;999.90;;;23.50;85.00;;;;;;5052557;28;20032;-74
2022/07/13 00:46:43;;;;;;;1999.90;999.90;;;23.50;85.10;;;;;;5052623;28;20103;-75
2022/07/13 00:49:10;;;;;;;1999.90;999.90;;;23.40;85.50;;;;;;5052456;28;20025;-74
2022/07/13 00:51:37;;;;;;;1999.90;999.90;;;23.40;85.70;;;;;;5066356;28;20016;-74
2022/07/13 00:54:04;;;;;;;1999.90;999.90;;;23.30;85.70;;;;;;5052587;28;20112;-74
2022/07/13 00:56:30;;;;;;;1999.90;999.90;;;23.30;86.00;;;;;;5051999;28;20021;-74
2022/07/13 00:58:59;;;;;;;1999.90;999.90;;;23.30;85.20;;;;;;5052505;28;20025;-74
2022/07/13 01:01:26;;;;;;;1999.90;999.90;;;23.20;85.70;;;;;;5060460;28;20025;-74
2022/07/13 01:03:52;;;;;;;1999.90;999.90;;;23.20;84.40;;;;;;5055947;28;20028;-75
2022/07/13 01:06:18;;;;;;;1999.90;999.90;;;23.10;83.40;;;;;;5056809;28;20112;-75
2022/07/13 01:08:44;;;;;;;1999.90;999.90;;;23.10;84.80;;;;;;5056167;28;20028;-74
2022/07/13 01:11:11;;;;;;;1999.90;999.90;;;23.00;82.60;;;;;;5046405;28;20026;-74
2022/07/13 01:13:38;;;;;;;1999.90;999.90;;;23.00;82.60;;;;;;5056105;28;20428;-75
2022/07/13 01:16:04;;;;;;;1999.90;999.90;;;22.90;82.10;;;;;;5056364;28;20096;-75
2022/07/13 01:18:30;;;;;;;1999.90;999.90;;;22.80;82.40;;;;;;5056106;28;20029;-74
2022/07/13 01:20:57;;;;;;;1999.90;999.90;;;22.80;81.70;;;;;;5056387;28;20025;-74
2022/07/13 01:23:24;;;;;;;1999.90;999.90;;;22.70;81.60;;;;;;5055997;28;20158;-75
2022/07/13 01:25:50;;;;;;;1999.90;999.90;;;22.60;81.80;;;;;;5055723;28;20047;-75
2022/07/13 01:28:15;;;;;;;1999.90;999.90;;;22.50;81.90;;;;;;5056301;28;20444;-75
2022/07/13 01:30:43;;;;;;;1999.90;999.90;;;22.50;82.30;;;;;;5055875;28;20056;-74
2022/07/13 01:33:09;;;;;;;1999.90;999.90;;;22.40;82.20;;;;;;5055912;28;20037;-74
2022/07/13 01:35:35;;;;;;;1999.90;999.90;;;22.40;83.30;;;;;;5042857;28;20108;-74
2022/07/13 01:38:01;;;;;;;1999.90;999.90;;;22.30;82.60;;;;;;5056007;28;20151;-74
2022/07/13 01:40:27;;;;;;;1999.90;999.90;;;22.30;82.60;;;;;;5055701;28;20025;-74
2022/07/13 01:42:53;;;;;;;1999.90;999.90;;;22.30;83.30;;;;;;5055877;28;20065;-74
2022/07/13 01:45:25;;;;;;;1999.90;999.90;;;22.30;83.00;;;;;;5055849;28;20048;-75
2022/07/13 01:47:56;;;;;;;1999.90;999.90;;;22.20;83.50;;;;;;5055624;28;20036;-74
2022/07/13 01:50:23;;;;;;;1999.90;999.90;;;22.20;83.60;;;;;;5059971;28;20031;-74
2022/07/13 01:52:49;;;;;;;1999.90;999.90;;;22.20;83.60;;;;;;5064971;28;20036;-74
2022/07/13 01:55:16;;;;;;;1999.90;999.90;;;22.10;84.50;;;;;;5053575;28;20029;-74
2022/07/13 01:57:42;;;;;;;1999.90;999.90;;;22.10;83.30;;;;;;5055729;28;20033;-74
2022/07/13 02:00:17;;;;;;;1999.90;999.90;;;22.20;83.50;;;;;;5054839;28;20527;-75
2022/07/13 02:02:43;;;;;;;1999.90;999.90;;;22.10;83.40;;;;;;5056020;28;20101;-74
2022/07/13 02:05:10;;;;;;;1999.90;999.90;;;22.10;83.30;;;;;;5055313;28;20123;-74
2022/07/13 02:07:37;;;;;;;1999.90;999.90;;;22.10;83.30;;;;;;5055816;28;20028;-74
2022/07/13 02:10:04;;;;;;;1999.90;999.90;;;22.10;83.70;;;;;;5052660;28;20021;-74
2022/07/13 02:12:30;;;;;;;1999.90;999.90;;;22.10;83.20;;;;;;5048460;28;20037;-74
2022/07/13 02:14:56;;;;;;;1999.90;999.90;;;22.10;83.60;;;;;;5053852;28;20388;-74
2022/07/13 02:17:22;;;;;;;1999.90;999.90;;;22.10;83.40;;;;;;5036592;28;20040;-74
2022/07/13 02:19:48;;;;;;;1999.90;999.90;;;22.10;83.90;;;;;;5055136;28;20033;-74
2022/07/13 02:22:14;;;;;;;1999.90;999.90;;;22.10;83.40;;;;;;5055031;28;20104;-75
2022/07/13 02:24:40;;;;;;;1999.90;999.90;;;22.00;83.70;;;;;;5041321;28;20056;-75
2022/07/13 02:27:06;;;;;;;1999.90;999.90;;;22.00;84.00;;;;;;5054109;28;20063;-74
2022/07/13 02:29:32;;;;;;;1999.90;999.90;;;21.90;84.00;;;;;;5054730;28;20045;-75
2022/07/13 02:31:57;;;;;;;1999.90;999.90;;;21.90;84.20;;;;;;5055316;28;20029;-74
2022/07/13 02:34:27;;;;;;;1999.90;999.90;;;21.90;84.80;;;;;;5049261;28;20469;-74
2022/07/13 02:36:54;;;;;;;1999.90;999.90;;;21.80;84.40;;;;;;5048513;28;20017;-74
2022/07/13 02:39:20;;;;;;;1999.90;999.90;;;21.80;84.40;;;;;;5054408;28;20559;-74
2022/07/13 02:41:46;;;;;;;1999.90;999.90;;;21.70;84.80;;;;;;5046087;28;20109;-74
2022/07/13 02:44:12;;;;;;;1999.90;999.90;;;21.70;84.80;;;;;;5054877;28;20396;-74
2022/07/13 02:46:38;;;;;;;1999.90;999.90;;;21.70;85.00;;;;;;5054799;28;20468;-74
2022/07/13 02:49:03;;;;;;;1999.90;999.90;;;21.60;85.00;;;;;;5054842;28;20476;-75
2022/07/13 02:51:29;;;;;;;1999.90;999.90;;;21.60;85.40;;;;;;5067930;28;20024;-74
2022/07/13 02:53:55;;;;;;;1999.90;999.90;;;21.60;85.00;;;;;;5054363;28;20040;-74
2022/07/13 02:56:21;;;;;;;1999.90;999.90;;;21.50;84.90;;;;;;5052851;28;20540;-74
2022/07/13 02:58:47;;;;;;;1999.90;999.90;;;21.60;85.10;;;;;;5054842;28;20538;-74
2022/07/13 03:01:13;;;;;;;1999.90;999.90;;;21.50;85.30;;;;;;5061875;28;20110;-74
2022/07/13 03:03:39;;;;;;;1999.90;999.90;;;21.50;85.50;;;;;;5054500;28;20395;-74
2022/07/13 03:06:05;;;;;;;1999.90;999.90;;;21.50;86.00;;;;;;5054654;28;20075;-74
2022/07/13 03:08:30;;;;;;;1999.90;999.90;;;21.40;85.90;;;;;;5054101;28;20072;-74
2022/07/13 03:10:56;;;;;;;1999.90;999.90;;;21.40;86.10;;;;;;5032874;28;20056;-74
2022/07/13 03:13:22;;;;;;;1999.90;999.90;;;21.40;86.30;;;;;;5053960;28;20079;-74
2022/07/13 03:15:48;;;;;;;1999.90;999.90;;;21.30;86.30;;;;;;5054252;28;20151;-75
2022/07/13 03:18:14;;;;;;;1999.90;999.90;;;21.30;87.30;;;;;;5036004;28;20024;-74
2022/07/13 03:20:41;;;;;;;1999.90;999.90;;;21.20;87.00;;;;;;5054180;28;20028;-74
2022/07/13 03:23:07;;;;;;;1999.90;999.90;;;21.20;87.00;;;;;;5053948;28;20388;-74
2022/07/13 03:25:33;;;;;;;1999.90;999.90;;;21.10;87.00;;;;;;5053001;28;20384;-74
2022/07/13 03:27:59;;;;;;;1999.90;999.90;;;21.10;86.90;;;;;;5053912;28;20033;-74
2022/07/13 03:30:25;;;;;;;1999.90;999.90;;;21.10;86.80;;;;;;5053857;28;20543;-75
2022/07/13 03:32:51;;;;;;;1999.90;999.90;;;21.00;87.10;;;;;;5053580;28;20068;-74
2022/07/13 03:35:17;;;;;;;1999.90;999.90;;;21.00;87.70;;;;;;5041147;28;20025;-74
2022/07/13 03:37:43;;;;;;;1999.90;999.90;;;20.90;87.90;;;;;;5053522;28;20111;-74
2022/07/13 03:40:09;;;;;;;1999.90;999.90;;;20.80;88.40;;;;;;5053511;28;20025;-74
2022/07/13 03:42:37;;;;;;;1999.90;999.90;;;20.80;88.60;;;;;;5044429;28;20025;-74
2022/07/13 03:45:04;;;;;;;1999.90;999.90;;;20.70;88.40;;;;;;5053602;28;20488;-74
2022/07/13 03:47:31;;;;;;;1999.90;999.90;;;20.70;88.80;;;;;;5062745;28;20052;-74
2022/07/13 03:49:57;;;;;;;1999.90;999.90;;;20.70;88.80;;;;;;5054211;28;20021;-74
2022/07/13 03:52:23;;;;;;;1999.90;999.90;;;20.60;89.40;;;;;;5066160;28;20025;-74
2022/07/13 03:54:48;;;;;;;1999.90;999.90;;;20.60;89.10;;;;;;5052015;28;20025;-74
2022/07/13 03:57:14;;;;;;;1999.90;999.90;;;20.60;89.60;;;;;;5052961;28;20056;-74
2022/07/13 03:59:40;;;;;;;1999.90;999.90;;;20.60;88.70;;;;;;5053266;28;20071;-74
2022/07/13 04:02:06;;;;;;;1999.90;999.90;;;20.60;88.90;;;;;;5034773;28;20029;-74
2022/07/13 04:04:32;;;;;;;1999.90;999.90;;;20.60;88.60;;;;;;5053086;28;20036;-74
2022/07/13 04:06:58;;;;;;;1999.90;999.90;;;20.60;88.20;;;;;;5053208;28;20028;-74
2022/07/13 04:09:24;;;;;;;1999.90;999.90;;;20.60;88.60;;;;;;5052845;28;20048;-74
2022/07/13 04:11:50;;;;;;;1999.90;999.90;;;20.60;87.80;;;;;;5053205;28;20487;-74
2022/07/13 04:14:16;;;;;;;1999.90;999.90;;;20.70;88.00;;;;;;5052510;28;20025;-74
2022/07/13 04:16:41;;;;;;;1999.90;999.90;;;20.70;88.40;;;;;;5052791;28;20040;-74
2022/07/13 04:19:07;;;;;;;1999.90;999.90;;;20.70;87.70;;;;;;5052971;28;20059;-74
2022/07/13 04:21:33;;;;;;;1999.90;999.90;;;20.80;87.50;;;;;;5052858;28;20468;-74
2022/07/13 04:23:58;;;;;;;1999.90;999.90;;;20.70;87.40;;;;;;5052442;28;20475;-74
2022/07/13 04:26:25;;;;;;;1999.90;999.90;;;20.80;87.30;;;;;;5048940;28;20453;-74
2022/07/13 04:28:50;;;;;;;1999.90;999.90;;;20.80;87.40;;;;;;5052778;28;20024;-74
2022/07/13 04:31:16;;;;;;;1999.90;999.90;;;20.90;87.10;;;;;;5052554;28;20474;-74
2022/07/13 04:33:42;;;;;;;1999.90;999.90;;;21.00;86.80;;;;;;5052646;28;20150;-74
2022/07/13 04:36:08;;;;;;;1999.90;999.90;;;21.10;86.70;;;;;;5052665;28;20029;-74
2022/07/13 04:38:34;;;;;;;1999.90;999.90;;;21.20;86.70;;;;;;5051233;28;20025;-73
2022/07/13 04:41:00;;;;;;;1999.90;999.90;;;21.20;85.70;;;;;;5050410;28;20032;-74
2022/07/13 04:43:26;;;;;;;1999.90;999.90;;;21.40;86.10;;;;;;5031554;28;20025;-74
2022/07/13 04:45:52;;;;;;;1999.90;999.90;;;21.50;85.50;;;;;;5054914;28;20055;-74
2022/07/13 04:48:18;;;;;;;1999.90;999.90;;;21.50;85.50;;;;;;5055274;28;20480;-74
2022/07/13 04:50:43;;;;;;;1999.90;999.90;;;21.60;85.30;;;;;;5059893;28;20505;-74
2022/07/13 04:53:09;;;;;;;1999.90;999.90;;;21.70;85.30;;;;;;5058316;28;20032;-74
2022/07/13 04:55:38;;;;;;;1999.90;999.90;;;21.80;84.60;;;;;;5051033;28;20488;-74
2022/07/13 04:58:04;;;;;;;1999.90;999.90;;;21.80;85.10;;;;;;5052535;28;20032;-74
2022/07/13 05:00:29;;;;;;;1999.90;999.90;;;21.90;85.10;;;;;;5054774;28;20033;-74
2022/07/13 05:02:55;;;;;;;1999.90;999.90;;;22.00;85.10;;;;;;5057875;28;20059;-74
2022/07/13 05:05:21;;;;;;;1999.90;999.90;;;22.00;84.50;;;;;;5052283;28;20154;-74
2022/07/13 05:07:47;;;;;;;1999.90;999.90;;;22.10;84.60;;;;;;5054899;28;20016;-73
2022/07/13 05:10:13;;;;;;;1999.90;999.90;;;22.20;84.30;;;;;;5049017;28;20560;-75
2022/07/13 05:12:39;;;;;;;1999.90;999.90;;;22.30;84.50;;;;;;5052024;28;20029;-76
2022/07/13 05:15:07;;;;;;;1999.90;999.90;;;22.40;84.40;;;;;;5052425;28;20025;-75
2022/07/13 05:17:32;;;;;;;1999.90;999.90;;;22.40;84.20;;;;;;5051995;28;20484;-75
2022/07/13 05:19:58;;;;;;;1999.90;999.90;;;22.40;84.00;;;;;;5051852;28;20086;-75
2022/07/13 05:22:24;;;;;;;1999.90;999.90;;;22.40;84.10;;;;;;5051777;28;20112;-75
2022/07/13 05:24:49;;;;;;;1999.90;999.90;;;22.50;84.30;;;;;;5050812;28;20032;-75
2022/07/13 05:27:15;;;;;;;1999.90;999.90;;;22.50;84.30;;;;;;5051520;28;20025;-75
2022/07/13 05:29:40;;;;;;;1999.90;999.90;;;22.60;84.60;;;;;;5051841;28;20463;-75
2022/07/13 05:32:06;;;;;;;1999.90;999.90;;;22.60;85.00;;;;;;5051120;28;20381;-75
2022/07/13 05:34:32;;;;;;;1999.90;999.90;;;22.60;84.60;;;;;;5045507;28;20030;-75
2022/07/13 05:36:58;;;;;;;1999.90;999.90;;;22.60;84.70;;;;;;5047923;28;20024;-76
2022/07/13 05:39:23;;;;;;;1999.90;999.90;;;22.70;85.90;;;;;;5052261;28;20032;-76
2022/07/13 05:41:49;;;;;;;1999.90;999.90;;;22.70;85.10;;;;;;5054280;28;20025;-75
2022/07/13 05:44:14;;;;;;;1999.90;999.90;;;22.70;84.60;;;;;;5043061;28;20025;-75
2022/07/13 05:46:40;;;;;;;1999.90;999.90;;;22.70;84.60;;;;;;5027638;28;20476;-75
2022/07/13 05:49:06;;;;;;;1999.90;999.90;;;22.70;84.70;;;;;;5046133;28;20029;-75
2022/07/13 05:51:31;;;;;;;1999.90;999.90;;;22.70;85.00;;;;;;5045614;28;20083;-75
2022/07/13 05:53:57;;;;;;;1999.90;999.90;;;22.70;85.10;;;;;;5046125;28;20025;-75
2022/07/13 05:56:22;;;;;;;1999.90;999.90;;;22.70;85.70;;;;;;5047635;28;20025;-75
2022/07/13 05:58:48;;;;;;;1999.90;999.90;;;22.80;85.50;;;;;;5048822;28;20624;-75
2022/07/13 06:01:14;;;;;;;1999.90;999.90;;;22.90;85.50;;;;;;5053715;28;20025;-75
2022/07/13 06:03:39;;;;;;;1999.90;999.90;;;23.00;85.30;;;;;;5049870;28;20430;-75
2022/07/13 06:06:05;;;;;;;1999.90;999.90;;;23.00;85.80;;;;;;5050269;28;20490;-75
2022/07/13 06:08:31;;;;;;;1999.90;999.90;;;23.10;84.50;;;;;;5053563;28;20368;-75
2022/07/13 06:10:56;;;;;;;1999.90;999.90;;;23.20;85.20;;;;;;5053904;28;20476;-75
2022/07/13 06:13:22;;;;;;;1999.90;999.90;;;23.40;84.70;;;;;;5052799;28;20025;-75
2022/07/13 06:15:47;;;;;;;1999.90;999.90;;;23.40;84.60;;;;;;5051868;28;20037;-75
2022/07/13 06:18:13;;;;;;;1999.90;999.90;;;23.40;84.20;;;;;;5050773;28;20074;-75
2022/07/13 06:20:39;;;;;;;1999.90;999.90;;;23.60;83.90;;;;;;5053100;28;20025;-75
2022/07/13 06:23:10;;;;;;;1999.90;999.90;;;23.80;83.50;;;;;;5052961;28;20029;-75
2022/07/13 06:25:37;;;;;;;1999.90;999.90;;;23.90;83.30;;;;;;5052027;28;20033;-75
2022/07/13 06:28:03;;;;;;;1999.90;999.90;;;24.00;83.00;;;;;;5043214;28;20052;-75
2022/07/13 06:30:29;;;;;;;1999.90;999.90;;;24.20;83.60;;;;;;5052796;28;20092;-75
2022/07/13 06:32:55;;;;;;;1999.90;999.90;;;24.20;82.50;;;;;;5052331;28;20392;-75
2022/07/13 06:35:20;;;;;;;1999.90;999.90;;;24.40;81.70;;;;;;5041373;28;20025;-76
2022/07/13 06:37:46;;;;;;;1999.90;999.90;;;24.50;81.80;;;;;;5051717;28;20104;-75
2022/07/13 06:40:12;;;;;;;1999.90;999.90;;;24.70;81.30;;;;;;5052602;28;20033;-75
2022/07/13 06:42:37;;;;;;;1999.90;999.90;;;24.80;81.20;;;;;;5049135;28;20032;-76
2022/07/13 06:45:03;;;;;;;1999.90;999.90;;;25.00;80.70;;;;;;5041175;28;20111;-76
2022/07/13 06:47:29;;;;;;;1999.90;999.90;;;25.10;80.90;;;;;;5035124;28;20029;-75
2022/07/13 06:49:55;;;;;;;1999.90;999.90;;;25.30;80.20;;;;;;5053668;28;20032;-76
2022/07/13 06:52:20;;;;;;;1999.90;999.90;;;25.50;80.40;;;;;;5065986;28;20025;-75
2022/07/13 06:54:46;;;;;;;1999.90;999.90;;;25.70;80.10;;;;;;5051044;28;20045;-76
2022/07/13 06:57:11;;;;;;;1999.90;999.90;;;25.70;80.00;;;;;;5036334;28;20074;-76
2022/07/13 06:59:37;;;;;;;1999.90;999.90;;;25.70;80.90;;;;;;5051396;28;20426;-76
2022/07/13 07:02:03;;;;;;;1999.90;999.90;;;25.70;80.10;;;;;;5049740;28;20531;-75
2022/07/13 07:04:29;;;;;;;1999.90;999.90;;;25.90;80.00;;;;;;5050624;28;20026;-75
2022/07/13 07:06:56;;;;;;;1999.90;999.90;;;26.10;80.20;;;;;;5046779;28;20074;-75
2022/07/13 07:09:22;;;;;;;1999.90;999.90;;;26.30;79.00;;;;;;5050271;28;20084;-76
2022/07/13 07:11:48;;;;;;;1999.90;999.90;;;26.50;77.60;;;;;;5051166;28;20061;-76
2022/07/13 07:14:14;;;;;;;1999.90;999.90;;;26.50;77.60;;;;;;5051578;28;20393;-76
2022/07/13 07:16:42;;;;;;;1999.90;999.90;;;26.50;78.20;;;;;;5047000;28;20036;-75
2022/07/13 07:19:08;;;;;;;1999.90;999.90;;;26.50;78.80;;;;;;5050914;28;20016;-76
2022/07/13 07:21:33;;;;;;;1999.90;999.90;;;26.50;78.30;;;;;;5050653;28;20029;-76
2022/07/13 07:23:59;;;;;;;1999.90;999.90;;;26.60;77.30;;;;;;5051436;28;20070;-76
2022/07/13 07:26:25;;;;;;;1999.90;999.90;;;26.90;77.20;;;;;;5048778;28;20108;-75
2022/07/13 07:28:50;;;;;;;1999.90;999.90;;;27.20;76.60;;;;;;5050764;28;20031;-75
2022/07/13 07:31:16;;;;;;;1999.90;999.90;;;27.40;75.50;;;;;;5050769;28;20063;-76
2022/07/13 07:33:41;;;;;;;1999.90;999.90;;;27.70;75.90;;;;;;5051637;28;20124;-75
2022/07/13 07:36:07;;;;;;;1999.90;999.90;;;28.00;74.20;;;;;;5052758;28;20032;-75
2022/07/13 07:38:33;;;;;;;1999.90;999.90;;;28.40;72.10;;;;;;5050806;28;20392;-76
2022/07/13 07:40:59;;;;;;;1999.90;999.90;;;29.10;70.10;;;;;;5051412;28;20029;-74
2022/07/13 07:43:24;;;;;;;1999.90;999.90;;;31.30;67.80;;;;;;5051320;28;20024;-74
2022/07/13 07:45:50;;;;;;;1999.90;999.90;;;33.70;64.00;;;;;;5052434;28;20033;-74
2022/07/13 07:48:16;;;;;;;1999.90;999.90;;;35.30;63.20;;;;;;5049469;28;20053;-73
2022/07/13 07:50:41;;;;;;;1999.90;999.90;;;36.00;62.70;;;;;;5050951;28;20072;-74
2022/07/13 07:53:07;;;;;;;1999.90;999.90;;;36.50;61.70;;;;;;5051152;28;20039;-74
2022/07/13 07:55:33;;;;;;;1999.90;999.90;;;37.40;61.20;;;;;;5047557;28;20044;-74
2022/07/13 07:57:58;;;;;;;1999.90;999.90;;;38.10;60.40;;;;;;5050662;28;20025;-73
2022/07/13 08:00:24;;;;;;;1999.90;999.90;;;38.30;59.10;;;;;;5050377;28;20029;-74
2022/07/13 08:02:50;;;;;;;1999.90;999.90;;;38.50;59.60;;;;;;5048431;28;20028;-74
2022/07/13 08:05:16;;;;;;;1999.90;999.90;;;39.10;57.80;;;;;;5048164;28;20479;-74
2022/07/13 08:07:43;;;;;;;1999.90;999.90;;;39.50;57.60;;;;;;5050762;28;20025;-74
2022/07/13 08:10:11;;;;;;;1999.90;999.90;;;39.60;56.60;;;;;;5047585;28;20451;-74
2022/07/13 08:12:36;;;;;;;1999.90;999.90;;;39.60;57.10;;;;;;5051330;28;20025;-74
2022/07/13 08:15:03;;;;;;;1999.90;999.90;;;39.90;55.80;;;;;;5052811;28;20029;-74
2022/07/13 08:17:28;;;;;;;1999.90;999.90;;;40.60;55.00;;;;;;5050754;28;20028;-74
2022/07/13 08:19:54;;;;;;;1999.90;999.90;;;40.60;54.10;;;;;;5048001;28;20500;-74
2022/07/13 08:22:19;;;;;;;1999.90;999.90;;;40.30;54.50;;;;;;5049392;28;20036;-74
2022/07/13 08:24:45;;;;;;;1999.90;999.90;;;39.60;55.20;;;;;;5050619;28;20029;-74
2022/07/13 08:27:11;;;;;;;1999.90;999.90;;;39.20;55.00;;;;;;5048676;28;20033;-74
2022/07/13 08:29:36;;;;;;;1999.90;999.90;;;38.90;54.40;;;;;;5050454;28;20531;-74
2022/07/13 08:32:02;;;;;;;1999.90;999.90;;;38.70;55.00;;;;;;5049774;28;20039;-74
2022/07/13 08:40:06;;;;;;;1999.90;999.90;;;37.50;55.90;;;;;;5043917;28;20534;-74
2022/07/13 08:42:32;;;;;;;1999.90;999.90;;;38.60;55.80;;;;;;5047069;28;20392;-74
2022/07/13 08:44:57;;;;;;;1999.90;999.90;;;40.00;54.90;;;;;;5042487;28;20037;-74
2022/07/13 08:47:28;;;;;;;1999.90;999.90;;;40.80;55.90;;;;;;5055106;28;20020;-75
2022/07/13 08:50:02;;;;;;;1999.90;999.90;;;42.90;55.00;;;;;;5046655;28;20041;-75
2022/07/13 08:52:29;;;;;;;1999.90;999.90;;;43.00;54.00;;;;;;5043352;28;20508;-75
2022/07/13 08:54:56;;;;;;;1999.90;999.90;;;43.70;54.10;;;;;;5044414;28;20611;-75
2022/07/13 08:57:21;;;;;;;1999.90;999.90;;;44.00;53.50;;;;;;5046292;28;20040;-75
2022/07/13 08:59:47;;;;;;;1999.90;999.90;;;43.20;53.50;;;;;;5049625;28;20391;-75
2022/07/13 09:02:12;;;;;;;1999.90;999.90;;;42.60;53.30;;;;;;5047695;28;20056;-75
2022/07/13 09:04:39;;;;;;;1999.90;999.90;;;42.90;54.10;;;;;;5046795;28;20029;-75
2022/07/13 09:07:11;;;;;;;1999.90;999.90;;;43.20;54.40;;;;;;5049615;28;20048;-75
2022/07/13 09:09:38;;;;;;;1999.90;999.90;;;43.30;53.10;;;;;;5049372;28;20111;-75
2022/07/13 09:12:12;;;;;;;1999.90;999.90;;;42.70;53.00;;;;;;5037178;28;20480;-75
2022/07/13 09:14:39;;;;;;;1999.90;999.90;;;42.60;53.30;;;;;;5046066;28;20060;-76
2022/07/13 09:17:04;;;;;;;1999.90;999.90;;;43.00;52.70;;;;;;5049647;28;20056;-74
2022/07/13 09:19:36;;;;;;;1999.90;999.90;;;43.70;54.70;;;;;;5033299;28;20078;-74
2022/07/13 09:22:13;;;;;;;1999.90;999.90;;;44.30;53.60;;;;;;5049320;28;20036;-75
2022/07/13 09:24:48;;;;;;;1999.90;999.90;;;44.70;54.20;;;;;;5051646;28;20029;-75
2022/07/13 09:27:15;;;;;;;1999.90;999.90;;;44.40;53.50;;;;;;5046108;28;20029;-74
2022/07/13 09:29:41;;;;;;;1999.90;999.90;;;44.80;53.20;;;;;;5051846;28;20044;-75
2022/07/13 09:32:14;;;;;;;1999.90;999.90;;;44.80;52.90;;;;;;5032812;28;20358;-75
2022/07/13 09:34:51;;;;;;;1999.90;999.90;;;44.90;51.30;;;;;;5050749;28;20090;-75
2022/07/13 09:37:18;;;;;;;1999.90;999.90;;;45.20;51.60;;;;;;5052276;28;20025;-74
2022/07/13 09:40:09;;;;;;;1999.90;999.90;;;45.10;52.10;;;;;;5051144;28;20443;-75
2022/07/13 09:42:39;;;;;;;1999.90;999.90;;;45.30;52.30;;;;;;5047652;28;20017;-75
2022/07/13 09:47:54;;;;;;;1999.90;999.90;;;44.60;52.10;;;;;;5052632;28;20063;-76
2022/07/13 09:50:35;;;;;;;1999.90;999.90;;;44.10;52.00;;;;;;5048017;28;20032;-75
2022/07/13 09:53:02;;;;;;;1999.90;999.90;;;43.90;52.50;;;;;;5052885;28;20024;-75
2022/07/13 09:55:33;;;;;;;1999.90;999.90;;;44.10;52.40;;;;;;5051766;28;20051;-75
2022/07/13 09:58:02;;;;;;;1999.90;999.90;;;43.70;51.80;;;;;;5048102;28;20025;-75
2022/07/13 10:00:28;;;;;;;1999.90;999.90;;;44.10;51.60;;;;;;5053966;28;20033;-75
2022/07/13 10:02:55;;;;;;;1999.90;999.90;;;45.20;51.20;;;;;;5055210;28;20025;-76
2022/07/13 10:05:20;;;;;;;1999.90;999.90;;;45.20;52.30;;;;;;5051065;28;20033;-75
2022/07/13 10:07:48;;;;;;;1999.90;999.90;;;44.30;50.90;;;;;;5052972;28;20021;-76
2022/07/13 10:10:16;;;;;;;1999.90;999.90;;;43.70;52.30;;;;;;5050369;28;20029;-75
2022/07/13 10:12:43;;;;;;;1999.90;999.90;;;43.10;52.90;;;;;;5048193;28;20021;-75
2022/07/13 10:15:11;;;;;;;1999.90;999.90;;;41.80;53.20;;;;;;5051952;28;20036;-75
2022/07/13 10:17:38;;;;;;;1999.90;999.90;;;40.20;54.40;;;;;;5052655;28;20025;-74
2022/07/13 10:20:16;;;;;;;1999.90;999.90;;;41.10;55.50;;;;;;5045949;28;20028;-75
2022/07/13 10:22:48;;;;;;;1999.90;999.90;;;40.90;55.20;;;;;;5046584;28;20020;-74
2022/07/13 10:25:16;;;;;;;1999.90;999.90;;;40.80;55.70;;;;;;5049665;28;20105;-75
2022/07/13 10:27:43;;;;;;;1999.90;999.90;;;41.70;53.50;;;;;;5042868;28;20017;-74
2022/07/13 10:30:10;;;;;;;1999.90;999.90;;;40.90;55.20;;;;;;5049236;28;20048;-75
2022/07/13 10:32:38;;;;;;;1999.90;999.90;;;42.20;54.20;;;;;;5049607;28;20029;-75
2022/07/13 10:35:07;;;;;;;1999.90;999.90;;;43.80;53.50;;;;;;5051182;28;20474;-75
2022/07/13 10:37:58;;;;;;;1999.90;999.90;;;44.80;52.20;;;;;;5051664;28;20492;-75
2022/07/13 10:40:24;;;;;;;;;;;44.80;51.20;;;;;;5048957;28;20025;-75
2022/07/13 10:43:00;;;;;;;1999.90;999.90;;;44.00;51.30;;;;;;5052324;28;19916;-75
2022/07/13 10:45:41;;;;;;;1999.90;999.90;;;43.70;52.20;;;;;;5050897;28;20396;-75
2022/07/13 10:48:24;;;;;;;1999.90;999.90;;;41.80;52.80;;;;;;5048404;28;20024;-74
2022/07/13 10:50:52;;;;;;;1999.90;999.90;;;40.10;53.70;;;;;;5050085;28;20036;-75
2022/07/13 10:53:19;;;;;;;1999.90;999.90;;;41.50;53.30;;;;;;5034816;28;20496;-75
2022/07/13 10:55:47;;;;;;;1999.90;999.90;;;43.60;52.60;;;;;;5052479;28;20075;-75
2022/07/13 10:58:49;;;;;;;1999.90;999.90;;;44.50;51.70;;;;;;5051619;28;20033;-77
2022/07/13 11:01:42;;;;;;;1999.90;999.90;;;44.70;51.60;;;;;;4976452;28;20074;-75
2022/07/13 11:04:11;;;;;;;1999.90;999.90;;;44.20;51.40;;;;;;4975937;28;20035;-76
2022/07/13 11:06:38;;;;;;;1999.90;999.90;;;43.70;51.90;;;;;;4975613;28;20080;-76
2022/07/13 11:09:20;;;;;;;1999.90;999.90;;;42.50;52.30;;;;;;4966646;28;20027;-75
2022/07/13 11:11:50;;;;;;;1999.90;999.90;;;42.80;53.00;;;;;;4973099;28;20031;-75
2022/07/13 11:14:41;;;;;;;1999.90;999.90;;;43.40;51.90;;;;;;4973778;28;20031;-77
2022/07/13 11:17:17;;;;;;;1999.90;999.90;;;44.00;50.90;;;;;;4968374;28;20085;-75
2022/07/13 11:19:52;;;;;;;1999.90;999.90;;;43.40;51.20;;;;;;4967340;28;20114;-75
2022/07/13 11:22:19;;;;;;;1999.90;999.90;;;43.50;51.30;;;;;;4970707;28;20038;-76
2022/07/13 11:25:14;;;;;;;1999.90;999.90;;;42.90;50.70;;;;;;4972342;28;20113;-75
2022/07/13 11:27:53;;;;;;;1999.90;999.90;;;42.70;51.70;;;;;;4970007;28;20109;-75
2022/07/13 11:30:29;;;;;;;1999.90;999.90;;;42.60;52.40;;;;;;4970964;28;20414;-77
2022/07/13 11:32:55;;;;;;;1999.90;999.90;;;43.10;51.90;;;;;;4970149;28;20043;-76
2022/07/13 11:35:21;;;;;;;1999.90;999.90;;;43.70;52.90;;;;;;5016031;28;20124;-75
2022/07/13 11:37:47;;;;;;;1999.90;999.90;;;44.20;52.50;;;;;;5032865;28;20112;-76
2022/07/13 11:40:26;;;;;;;1999.90;999.90;;;43.30;51.20;;;;;;5051150;28;20035;-75
2022/07/13 11:42:53;;;;;;;1999.90;999.90;;;41.50;52.90;;;;;;5051531;28;20017;-76
2022/07/13 11:45:30;;;;;;;1999.90;999.90;;;41.10;52.00;;;;;;5052210;28;20039;-76
2022/07/13 11:47:58;;;;;;;1999.90;999.90;;;41.30;53.40;;;;;;5050792;28;20064;-76
2022/07/13 11:50:37;;;;;;;1999.90;999.90;;;40.90;53.60;;;;;;5051456;28;20082;-75
2022/07/13 11:53:03;;;;;;;1999.90;999.90;;;40.60;52.40;;;;;;5050891;28;20029;-76
2022/07/13 11:55:29;;;;;;;1999.90;999.90;;;39.70;53.60;;;;;;5050692;28;20552;-75
2022/07/13 11:57:58;;;;;;;1999.90;999.90;;;39.00;54.40;;;;;;5048838;28;20400;-73
2022/07/13 12:00:24;;;;;;;1999.90;999.90;;;38.60;54.20;;;;;;5048300;28;20735;-74
2022/07/13 12:02:53;;;;;;;1999.90;999.90;;;38.80;54.20;;;;;;5051003;28;20029;-74
2022/07/13 12:05:26;;;;;;;1999.90;999.90;;;39.30;54.40;;;;;;5047446;28;20106;-74
2022/07/13 12:08:11;;;;;;;1999.90;999.90;;;38.60;53.60;;;;;;5032767;28;20024;-75